Time Latitude Longitude Accuracy (66% radius in meters) Altitude (meters) Speed (km/hour) Bearing (degrees) Battery (%) GPS flag
10:57:40 31.936045 34.949370 3 131 0 0 4 1 delete
10:57:30 31.936042 34.949382 3 130 0.39115217328072 144 4 1 delete
10:57:16 31.936031 34.949384 3 129 0 0 4 1 delete
10:57:09 31.936032 34.949386 4 129 0 0 4 1 delete
10:57:02 31.936028 34.949369 5 128 0 0 4 1 delete
10:56:59 31.936054 34.949362 5 128 0 0 4 1 delete
10:56:53 31.936117 34.949332 5 127 1.2739309072495 84.099998474121 4 1 delete
10:56:49 31.936117 34.949243 5 125 1.0916501283646 57.599998474121 4 1 delete
10:56:44 31.936104 34.949222 6 129 1.726615190506 57.599998474121 4 1 delete
10:56:39 31.936051 34.949114 5 126 3.0252437591553 71.800003051758 4 1 delete
10:56:37 31.936028 34.949016 5 126 2.1277687549591 80.699996948242 4 1 delete
10:56:36 31.936048 34.948993 5 123 2.7405290603638 52.799999237061 4 1 delete
10:56:33 31.936030 34.948887 6 120 3.4820971488953 107.59999847412 4 1 delete
10:56:31 31.936058 34.948784 6 118 3.2330327033997 113 4 1 delete
10:56:28 31.936046 34.948656 10 118 2.8955829143524 170 4 1 delete
10:56:25 31.936156 34.948584 9 120 0.58189344406128 111.5 4 1 delete
10:56:22 31.936157 34.948608 5 121 1.6607528924942 111.5 4 1 delete
10:56:16 31.936153 34.948516 5 124 1.6595180034637 110 4 1 delete
10:56:15 31.936165 34.948502 5 123 0.62585943937302 40 4 1 delete
10:56:06 31.936111 34.948416 3 123 1.1403946876526 53.200000762939 4 1 delete
10:55:59 31.936080 34.948316 4 121 1.4235167503357 67.900001525879 4 1 delete
10:55:55 31.936058 34.948244 5 121 1.6842802762985 67.900001525879 4 1 delete
10:55:51 31.936026 34.948230 6 124 3.3701779842377 67.900001525879 4 1 delete
10:55:45 31.935943 34.948150 5 127 2.6879360675812 44 4 1 delete
10:55:44 31.935918 34.948120 5 126 2.4714572429657 53.299999237061 4 1 delete
10:55:43 31.935906 34.948043 5 119 1.9654006958008 57.700000762939 4 1 delete
10:55:40 31.935876 34.947937 7 109 2.1644861698151 47.900001525879 4 1 delete
10:55:38 31.935814 34.948104 32 157 2.4649746417999 50.599998474121 4 1 delete
10:54:18 31.935231 34.946026 4 129 2.8864684104919 134.69999694824 8 1 delete
10:54:17 31.935248 34.946002 4 129 2.8139650821686 137.30000305176 8 1 delete
10:54:13 31.935331 34.945928 3 130 2.83176612854 136.89999389648 8 1 delete
10:54:07 31.935405 34.945851 3 128 1.2906587123871 132.5 8 1 delete
10:53:54 31.935431 34.945794 3 126 0.56000000238419 310.79998779297 8 1 delete
10:53:50 31.935406 34.945830 3 126 1.3337541818619 307.20001220703 8 1 delete
10:53:42 31.935347 34.945926 3 126 1.7065753936768 306.5 8 1 delete
10:53:33 31.935258 34.945983 4 126 1.4021768569946 15.5 8 1 delete
10:53:31 31.935232 34.945969 3 126 1.3006151914597 20.60000038147 8 1 delete
10:53:20 31.935151 34.945928 5 125 0.39560079574585 217.19999694824 16 1 delete
10:53:17 31.935163 34.945936 4 125 1.3254433870316 230.69999694824 16 1 delete
10:53:09 31.935173 34.946045 6 123 1.7586357593536 310.20001220703 16 1 delete
10:53:07 31.935160 34.946075 6 125 0.89269256591797 278.5 16 1 delete
10:53:00 31.935110 34.946150 4 125 1.798471570015 308.79998779297 16 1 delete
10:52:55 31.935081 34.946201 4 123 1.1178997755051 290.20001220703 16 1 delete
10:52:43 31.935054 34.946214 4 122 0 0 16 1 delete
10:52:33 31.935057 34.946237 5 126 1.9126943349838 209.60000610352 16 1 delete
10:52:31 31.935125 34.946252 5 124 1.2690547704697 207.30000305176 16 1 delete
10:52:30 31.935151 34.946267 6 124 1.1449453830719 227.39999389648 16 1 delete
10:52:21 31.935178 34.946380 5 126 1.5255490541458 252.89999389648 16 1 delete
10:52:19 31.935198 34.946413 5 123 1.395170211792 223.30000305176 16 1 delete
10:52:13 31.935226 34.946483 4 125 1.4060226678848 203.80000305176 16 1 delete